createdAt,value
2019-05-02T00:01:56.402Z,9.10
2019-05-02T00:04:26.636Z,9.10
2019-05-02T00:07:05.728Z,9.00
2019-05-02T00:09:35.780Z,9.00
2019-05-02T00:12:07.106Z,9.00
2019-05-02T00:14:36.883Z,9.00
2019-05-02T00:17:06.002Z,9.00
2019-05-02T00:19:34.496Z,8.90
2019-05-02T00:22:03.329Z,8.90
2019-05-02T00:24:33.945Z,8.90
2019-05-02T00:27:03.184Z,8.90
2019-05-02T00:29:31.817Z,8.90
2019-05-02T00:32:00.402Z,8.80
2019-05-02T00:34:28.828Z,8.80
2019-05-02T00:36:57.278Z,8.80
2019-05-02T00:39:25.699Z,8.80
2019-05-02T00:41:54.319Z,8.80
2019-05-02T00:44:23.095Z,8.70
2019-05-02T00:46:53.198Z,8.70
2019-05-02T00:49:21.675Z,8.70
2019-05-02T00:51:50.226Z,8.70
2019-05-02T00:54:19.120Z,8.70
2019-05-02T00:56:48.777Z,8.70
2019-05-02T00:59:17.224Z,8.70
2019-05-02T01:01:59.994Z,8.60
2019-05-02T01:04:34.479Z,8.60
2019-05-02T01:07:04.833Z,8.60
2019-05-02T01:09:33.419Z,8.60
2019-05-02T01:12:03.044Z,8.60
2019-05-02T01:14:33.208Z,8.50
2019-05-02T01:17:01.806Z,8.50
2019-05-02T01:19:30.330Z,8.50
2019-05-02T01:21:58.824Z,8.40
2019-05-02T01:24:27.438Z,8.40
2019-05-02T01:27:12.309Z,8.40
2019-05-02T01:29:45.146Z,8.40
2019-05-02T01:32:25.176Z,8.30
2019-05-02T01:34:56.388Z,8.30
2019-05-02T01:37:38.782Z,8.30
2019-05-02T01:40:07.275Z,8.30
2019-05-02T01:42:40.025Z,8.20
2019-05-02T01:45:06.818Z,8.20
2019-05-02T01:47:36.209Z,8.20
2019-05-02T01:50:05.453Z,8.20
2019-05-02T01:52:33.891Z,8.20
2019-05-02T01:55:02.320Z,8.10
2019-05-02T01:57:30.747Z,8.10
2019-05-02T01:59:59.176Z,8.10
2019-05-02T02:02:28.065Z,8.10
2019-05-02T02:04:58.073Z,8.10
2019-05-02T02:07:26.568Z,8.00
2019-05-02T02:09:54.986Z,8.00
2019-05-02T02:12:23.480Z,8.00
2019-05-02T02:14:53.656Z,8.00
2019-05-02T02:17:22.071Z,8.00
2019-05-02T02:19:52.128Z,7.90
2019-05-02T02:22:22.666Z,7.90
2019-05-02T02:24:55.932Z,7.90
2019-05-02T02:27:25.898Z,7.90
2019-05-02T02:29:54.312Z,7.80
2019-05-02T02:32:27.132Z,7.80
2019-05-02T02:34:52.887Z,7.80
2019-05-02T02:37:21.338Z,7.80
2019-05-02T02:39:54.268Z,7.80
2019-05-02T02:42:25.091Z,7.80
2019-05-02T02:44:51.717Z,7.80
2019-05-02T02:47:21.261Z,7.70
2019-05-02T02:49:55.965Z,7.70
2019-05-02T02:52:20.155Z,7.70
2019-05-02T02:54:48.588Z,7.70
2019-05-02T02:57:25.940Z,7.60
2019-05-02T02:59:47.219Z,7.60
2019-05-02T03:02:15.708Z,7.60
2019-05-02T03:04:46.032Z,7.60
2019-05-02T03:07:24.184Z,7.50
2019-05-02T03:09:44.586Z,7.50
2019-05-02T03:12:20.700Z,7.50
2019-05-02T03:14:50.846Z,7.50
2019-05-02T03:17:25.777Z,7.40
2019-05-02T03:19:54.542Z,7.40
2019-05-02T03:22:19.780Z,7.40
2019-05-02T03:24:50.916Z,7.40
2019-05-02T03:27:19.413Z,7.40
2019-05-02T03:29:47.858Z,7.30
2019-05-02T03:32:32.226Z,7.30
2019-05-02T03:34:52.481Z,7.30
2019-05-02T03:37:17.871Z,7.30
2019-05-02T03:39:49.813Z,7.30
2019-05-02T03:42:16.583Z,7.30
2019-05-02T03:44:54.906Z,7.30
2019-05-02T03:47:15.314Z,7.20
2019-05-02T03:49:48.535Z,7.20
2019-05-02T03:52:14.348Z,7.20
2019-05-02T03:54:50.547Z,7.20
2019-05-02T03:57:12.990Z,7.20
2019-05-02T03:59:41.853Z,7.20
2019-05-02T04:02:13.882Z,7.20
2019-05-02T04:04:40.952Z,7.10
2019-05-02T04:07:09.865Z,7.20
2019-05-02T04:09:40.039Z,7.20
2019-05-02T04:12:18.961Z,7.10
2019-05-02T04:14:39.617Z,7.10
2019-05-02T04:17:10.358Z,7.10
2019-05-02T04:19:39.351Z,7.10
2019-05-02T04:22:11.771Z,7.10
2019-05-02T04:24:41.228Z,7.10
2019-05-02T04:27:09.790Z,7.00
2019-05-02T04:29:38.567Z,7.10
2019-05-02T04:32:11.629Z,7.00
2019-05-02T04:34:37.135Z,7.00
2019-05-02T04:37:05.586Z,7.00
2019-05-02T04:39:34.080Z,7.00
2019-05-02T04:42:05.294Z,7.00
2019-05-02T04:44:40.701Z,7.10
2019-05-02T04:47:10.956Z,7.00
2019-05-02T04:49:35.673Z,7.00
2019-05-02T04:52:10.336Z,7.10
2019-05-02T04:54:34.821Z,7.10
2019-05-02T04:57:03.279Z,7.10
2019-05-02T04:59:33.352Z,7.10
2019-05-02T05:02:01.969Z,7.20
2019-05-02T05:04:33.207Z,7.20
2019-05-02T05:07:01.226Z,7.20
2019-05-02T05:09:29.877Z,7.20
2019-05-02T05:12:01.321Z,7.20
2019-05-02T05:14:32.872Z,7.30
2019-05-02T05:16:58.617Z,7.30
2019-05-02T05:19:30.990Z,7.40
2019-05-02T05:22:04.442Z,7.40
2019-05-02T05:24:42.107Z,7.50
2019-05-02T05:27:08.310Z,7.50
2019-05-02T05:29:37.473Z,7.60
2019-05-02T05:32:09.847Z,7.70
2019-05-02T05:34:37.992Z,7.70
2019-05-02T05:37:09.341Z,7.80
2019-05-02T05:39:38.163Z,7.80
2019-05-02T05:42:08.385Z,7.90
2019-05-02T05:44:37.784Z,8.00
2019-05-02T05:47:07.456Z,8.00
2019-05-02T05:49:37.559Z,8.10
2019-05-02T05:52:08.102Z,8.20
2019-05-02T05:54:38.408Z,8.20
2019-05-02T05:57:07.577Z,8.30
2019-05-02T05:59:38.009Z,8.40
2019-05-02T06:02:12.715Z,8.40
2019-05-02T06:04:38.743Z,8.50
2019-05-02T06:07:07.315Z,8.60
2019-05-02T06:09:38.804Z,8.70
2019-05-02T06:12:07.259Z,8.70
2019-05-02T06:14:35.679Z,8.80
2019-05-02T06:17:04.162Z,8.90
2019-05-02T06:19:33.046Z,8.90
2019-05-02T06:22:01.457Z,9.00
2019-05-02T06:24:29.880Z,9.10
2019-05-02T06:26:58.302Z,9.20
2019-05-02T06:29:26.733Z,9.30
2019-05-02T06:31:56.763Z,9.40
2019-05-02T06:34:25.198Z,9.40
2019-05-02T06:36:55.156Z,9.50
2019-05-02T06:39:27.157Z,9.60
2019-05-02T06:41:57.385Z,9.70
2019-05-02T06:44:25.393Z,9.80
2019-05-02T06:46:54.009Z,9.90
2019-05-02T06:49:24.144Z,10.00
2019-05-02T06:51:56.250Z,10.10
2019-05-02T06:54:23.997Z,10.20
2019-05-02T06:56:52.680Z,10.30
2019-05-02T06:59:21.434Z,10.40
2019-05-02T07:01:52.299Z,10.50
2019-05-02T07:04:22.951Z,10.70
2019-05-02T07:06:58.471Z,11.20
2019-05-02T07:09:20.506Z,11.90
2019-05-02T07:11:56.972Z,12.60
2019-05-02T07:14:23.387Z,13.30
2019-05-02T07:16:54.563Z,14.00
2019-05-02T07:19:27.231Z,14.70
2019-05-02T07:21:58.578Z,15.40
2019-05-02T07:24:25.157Z,15.80
2019-05-02T07:26:56.923Z,16.30
2019-05-02T07:29:24.186Z,16.70
2019-05-02T07:31:53.629Z,16.80
2019-05-02T07:34:22.270Z,17.00
2019-05-02T07:36:50.712Z,17.20
2019-05-02T07:39:19.268Z,17.50
2019-05-02T07:41:48.867Z,17.70
2019-05-02T07:44:17.298Z,17.80
2019-05-02T07:46:51.889Z,18.00
2019-05-02T07:49:16.010Z,18.10
2019-05-02T07:51:44.438Z,18.10
2019-05-02T07:54:12.866Z,18.20
2019-05-02T07:56:41.300Z,18.20
2019-05-02T07:59:09.773Z,18.30
2019-05-02T08:01:39.248Z,18.20
2019-05-02T08:04:11.077Z,18.10
2019-05-02T08:06:40.192Z,18.00
2019-05-02T08:09:09.422Z,18.10
2019-05-02T08:11:38.535Z,18.20
2019-05-02T08:14:07.159Z,18.20
2019-05-02T08:16:35.683Z,18.10
2019-05-02T08:19:05.465Z,17.80
2019-05-02T08:21:34.627Z,17.60
2019-05-02T08:24:03.708Z,17.60
2019-05-02T08:26:43.078Z,17.80
2019-05-02T08:29:11.681Z,17.90
2019-05-02T08:31:40.097Z,17.90
2019-05-02T08:34:14.697Z,17.90
2019-05-02T08:36:38.686Z,18.00
2019-05-02T08:39:07.346Z,18.00
2019-05-02T08:41:35.798Z,18.10
2019-05-02T08:44:04.427Z,18.40
2019-05-02T08:46:32.976Z,18.70
2019-05-02T08:49:01.523Z,18.90
2019-05-02T08:51:29.952Z,19.00
2019-05-02T08:53:58.711Z,19.00
2019-05-02T08:56:27.293Z,19.10
2019-05-02T08:58:55.714Z,19.20
2019-05-02T09:01:34.626Z,19.10
2019-05-02T09:03:56.485Z,19.10
2019-05-02T09:06:24.525Z,19.10
2019-05-02T09:08:52.938Z,19.10
2019-05-02T09:11:21.383Z,19.20
2019-05-02T09:13:49.818Z,19.20
2019-05-02T09:16:23.720Z,19.30
2019-05-02T09:18:51.839Z,19.40
2019-05-02T09:21:18.634Z,19.40
2019-05-02T09:23:47.130Z,19.30
2019-05-02T09:26:15.651Z,19.30
2019-05-02T09:28:44.087Z,19.20
2019-05-02T09:31:15.021Z,19.20
2019-05-02T09:33:46.798Z,19.20
2019-05-02T09:36:13.606Z,19.20
2019-05-02T09:38:42.530Z,19.20
2019-05-02T09:41:18.811Z,19.50
2019-05-02T09:43:42.629Z,19.60
2019-05-02T09:46:12.770Z,19.60
2019-05-02T09:48:42.731Z,19.70
2019-05-02T09:51:17.009Z,19.70
2019-05-02T09:53:43.152Z,19.70
2019-05-02T09:56:12.672Z,19.70
2019-05-02T09:58:42.036Z,19.70
2019-05-02T10:01:18.161Z,19.60
2019-05-02T10:03:46.714Z,19.50
2019-05-02T10:06:18.145Z,19.40
2019-05-02T10:08:46.726Z,19.30
2019-05-02T10:11:17.129Z,19.30
2019-05-02T10:13:45.474Z,19.40
2019-05-02T10:16:18.092Z,19.40
2019-05-02T10:18:44.120Z,19.40
2019-05-02T10:21:16.934Z,19.40
2019-05-02T10:23:42.914Z,19.30
2019-05-02T10:26:14.657Z,19.20
2019-05-02T10:28:49.548Z,19.00
2019-05-02T10:31:12.740Z,18.90
2019-05-02T10:33:42.031Z,18.90
2019-05-02T10:36:13.700Z,18.80
2019-05-02T10:38:42.608Z,18.80
2019-05-02T10:41:12.035Z,18.60
2019-05-02T10:43:42.317Z,18.60
2019-05-02T10:46:15.314Z,18.40
2019-05-02T10:48:45.475Z,18.20
2019-05-02T10:51:31.697Z,18.10
2019-05-02T10:54:02.276Z,17.90
2019-05-02T10:56:32.436Z,17.60
2019-05-02T10:59:02.258Z,17.30
2019-05-02T11:01:32.464Z,17.10
2019-05-02T11:04:04.066Z,16.80
2019-05-02T11:06:32.522Z,16.70
2019-05-02T11:09:06.301Z,16.50
2019-05-02T11:11:33.332Z,16.30
2019-05-02T11:14:09.026Z,16.10
2019-05-02T11:16:57.402Z,16.00
2019-05-02T11:19:27.466Z,15.90
2019-05-02T11:21:58.971Z,15.80
2019-05-02T11:24:28.260Z,15.80
2019-05-02T11:26:56.684Z,15.70
2019-05-02T11:29:25.126Z,15.60
2019-05-02T11:31:55.287Z,15.70
2019-05-02T11:34:23.723Z,15.60
2019-05-02T11:36:52.715Z,15.60
2019-05-02T11:39:28.686Z,15.60
2019-05-02T11:41:52.701Z,15.60
2019-05-02T11:44:22.581Z,15.70
2019-05-02T11:46:54.330Z,15.70
2019-05-02T11:49:22.933Z,15.70
2019-05-02T11:51:52.711Z,15.70
2019-05-02T11:54:22.705Z,15.90
2019-05-02T11:56:53.344Z,15.90
2019-05-02T11:59:27.608Z,16.00
2019-05-02T12:01:59.466Z,16.10
2019-05-02T12:04:23.521Z,16.10
2019-05-02T12:07:01.130Z,16.10
2019-05-02T12:09:22.375Z,16.10
2019-05-02T12:11:54.992Z,16.00
2019-05-02T12:14:22.877Z,15.90
2019-05-02T12:16:52.775Z,15.80
2019-05-02T12:19:22.876Z,15.70
2019-05-02T12:21:55.609Z,15.60
2019-05-02T12:24:24.075Z,15.50
2019-05-02T12:26:52.886Z,15.40
2019-05-02T12:29:21.880Z,15.40
2019-05-02T12:31:52.676Z,15.30
2019-05-02T12:34:21.714Z,15.30
2019-05-02T12:36:51.790Z,15.40
2019-05-02T12:39:22.158Z,15.60
2019-05-02T12:41:53.312Z,15.90
2019-05-02T12:44:22.311Z,16.10
2019-05-02T12:46:51.784Z,16.40
2019-05-02T12:49:25.347Z,16.60
2019-05-02T12:51:52.387Z,16.60
2019-05-02T12:54:21.990Z,16.50
2019-05-02T12:56:52.617Z,16.40
2019-05-02T12:59:22.496Z,16.20
2019-05-02T13:01:51.823Z,16.10
2019-05-02T13:04:22.806Z,15.90
2019-05-02T13:06:52.852Z,15.80
2019-05-02T13:09:23.180Z,15.60
2019-05-02T13:11:53.078Z,15.40
2019-05-02T13:14:23.415Z,15.20
2019-05-02T13:16:53.394Z,15.00
2019-05-02T13:19:26.496Z,14.90
2019-05-02T13:21:59.360Z,14.90
2019-05-02T13:24:42.218Z,14.90
2019-05-02T13:27:12.651Z,14.90
2019-05-02T13:30:00.514Z,14.90
2019-05-02T13:32:32.094Z,14.90
2019-05-02T13:35:18.894Z,14.90
2019-05-02T13:37:48.624Z,14.90
2019-05-02T13:40:27.744Z,15.00
2019-05-02T13:42:58.433Z,15.10
2019-05-02T13:45:28.591Z,15.10
2019-05-02T13:47:57.146Z,15.20
2019-05-02T13:50:25.570Z,15.20
2019-05-02T13:52:57.854Z,15.30
2019-05-02T13:55:28.527Z,15.40
2019-05-02T13:57:57.026Z,15.40
2019-05-02T14:00:29.482Z,15.50
2019-05-02T14:02:57.923Z,15.50
2019-05-02T14:05:26.375Z,15.50
2019-05-02T14:08:12.977Z,15.40
2019-05-02T14:10:43.281Z,15.40
2019-05-02T14:13:12.475Z,15.40
2019-05-02T14:15:42.133Z,15.40
2019-05-02T14:18:12.406Z,15.50
2019-05-02T14:20:42.780Z,15.50
2019-05-02T14:23:12.142Z,15.60
2019-05-02T14:25:42.614Z,15.60
2019-05-02T14:28:12.945Z,15.60
2019-05-02T14:30:45.989Z,15.70
2019-05-02T14:33:13.082Z,15.70
2019-05-02T14:35:43.142Z,15.80
2019-05-02T14:38:13.455Z,15.80
2019-05-02T14:41:06.179Z,15.80
2019-05-02T14:43:53.078Z,15.80
2019-05-02T14:46:22.371Z,15.80
2019-05-02T14:48:52.233Z,15.70
2019-05-02T14:51:25.905Z,15.60
2019-05-02T14:53:52.597Z,15.60
2019-05-02T14:56:45.902Z,15.60
2019-05-02T14:59:17.898Z,15.60
2019-05-02T15:01:42.119Z,15.70
2019-05-02T15:04:12.814Z,15.80
2019-05-02T15:06:45.370Z,15.80
2019-05-02T15:09:12.058Z,15.80
2019-05-02T15:11:59.140Z,15.90
2019-05-02T15:14:29.515Z,16.00
2019-05-02T15:16:58.817Z,15.90
2019-05-02T15:19:27.400Z,15.90
2019-05-02T15:21:56.206Z,15.80
2019-05-02T15:24:27.772Z,15.80
2019-05-02T15:26:55.199Z,15.80
2019-05-02T15:29:27.121Z,15.80
2019-05-02T15:32:07.655Z,15.80
2019-05-02T15:34:55.745Z,15.80
2019-05-02T15:37:25.867Z,15.90
2019-05-02T15:42:25.795Z,15.90
2019-05-02T15:44:57.105Z,16.00
2019-05-02T15:47:24.779Z,16.00
2019-05-02T15:49:53.196Z,16.00
2019-05-02T15:52:33.725Z,16.00
2019-05-02T15:55:04.142Z,16.00
2019-05-02T15:57:38.014Z,15.90
2019-05-02T16:00:04.119Z,15.90
2019-05-02T16:02:32.992Z,15.90
2019-05-02T16:05:02.321Z,15.90
2019-05-02T16:07:32.595Z,15.90
2019-05-02T16:10:03.351Z,15.90
2019-05-02T16:12:32.147Z,16.00
2019-05-02T16:15:02.431Z,16.00
2019-05-02T16:17:33.435Z,16.00
2019-05-02T16:20:10.880Z,16.00
2019-05-02T16:22:46.357Z,16.00
2019-05-02T16:25:09.764Z,16.00
2019-05-02T16:27:48.267Z,15.90
2019-05-02T16:30:22.151Z,15.90
2019-05-02T16:32:52.352Z,15.90
2019-05-02T16:35:22.486Z,16.10
2019-05-02T16:37:54.425Z,16.10
2019-05-02T16:40:30.007Z,16.10
2019-05-02T16:42:53.042Z,16.20
2019-05-02T16:45:22.195Z,16.30
2019-05-02T16:47:58.588Z,16.40
2019-05-02T16:50:22.717Z,16.60
2019-05-02T16:52:53.080Z,16.60
2019-05-02T16:55:26.322Z,16.70
2019-05-02T16:57:56.738Z,16.70
2019-05-02T17:00:24.790Z,16.60
2019-05-02T17:02:53.209Z,16.60
2019-05-02T17:05:22.143Z,16.60
2019-05-02T17:07:52.862Z,16.60
2019-05-02T17:10:29.288Z,16.50
2019-05-02T17:13:00.283Z,16.50
2019-05-02T17:15:36.366Z,16.50
2019-05-02T17:18:12.959Z,16.40
2019-05-02T17:20:36.695Z,16.20
2019-05-02T17:23:07.553Z,16.10
2019-05-02T17:25:35.798Z,15.90
2019-05-02T17:28:10.392Z,15.70
2019-05-02T17:30:39.009Z,15.60
2019-05-02T17:33:11.461Z,15.60
2019-05-02T17:35:43.378Z,15.50
2019-05-02T17:38:07.363Z,15.40
2019-05-02T17:40:35.786Z,15.20
2019-05-02T17:43:06.979Z,15.00
2019-05-02T17:45:38.507Z,14.90
2019-05-02T17:48:10.311Z,14.80
2019-05-02T17:50:38.215Z,14.70
2019-05-02T17:53:07.885Z,14.50
2019-05-02T17:55:40.270Z,14.40
2019-05-02T17:58:12.252Z,14.30
2019-05-02T18:00:38.319Z,14.20
2019-05-02T18:03:07.007Z,14.10
2019-05-02T18:05:36.297Z,14.10
2019-05-02T18:08:10.424Z,14.00
2019-05-02T18:10:38.965Z,13.90
2019-05-02T18:13:07.416Z,13.80
2019-05-02T18:15:36.298Z,13.70
2019-05-02T18:18:06.906Z,13.60
2019-05-02T18:20:37.219Z,13.50
2019-05-02T18:23:06.031Z,13.50
2019-05-02T18:25:34.748Z,13.40
2019-05-02T18:28:03.174Z,13.30
2019-05-02T18:30:31.666Z,13.30
2019-05-02T18:33:03.550Z,13.20
2019-05-02T18:35:30.255Z,13.20
2019-05-02T18:37:59.254Z,13.10
2019-05-02T18:40:29.691Z,13.10
2019-05-02T18:43:02.200Z,13.00
2019-05-02T18:45:28.767Z,13.00
2019-05-02T18:48:02.484Z,12.90
2019-05-02T18:50:31.761Z,12.80
2019-05-02T18:53:00.281Z,12.80
2019-05-02T18:55:28.988Z,12.70
2019-05-02T18:58:02.503Z,12.70
2019-05-02T19:00:35.178Z,12.60
2019-05-02T19:02:57.927Z,12.60
2019-05-02T19:05:26.685Z,12.50
2019-05-02T19:07:56.489Z,12.50
2019-05-02T19:10:25.220Z,12.40
2019-05-02T19:12:56.014Z,12.40
2019-05-02T19:15:23.941Z,12.30
2019-05-02T19:17:52.934Z,12.30
2019-05-02T19:20:24.671Z,12.20
2019-05-02T19:22:56.775Z,12.10
2019-05-02T19:25:23.234Z,12.00
2019-05-02T19:27:57.616Z,12.00
2019-05-02T19:30:27.246Z,11.90
2019-05-02T19:32:57.828Z,11.80
2019-05-02T19:35:26.193Z,11.70
2019-05-02T19:37:55.099Z,11.70
2019-05-02T19:40:28.204Z,11.60
2019-05-02T19:42:57.358Z,11.50
2019-05-02T19:45:26.847Z,11.50
2019-05-02T19:47:57.704Z,11.40
2019-05-02T19:50:38.520Z,11.40
2019-05-02T19:53:04.304Z,11.40
2019-05-02T19:55:32.149Z,11.30
2019-05-02T19:58:02.416Z,11.30
2019-05-02T20:00:31.844Z,11.30
2019-05-02T20:03:01.799Z,11.20
2019-05-02T20:05:32.179Z,11.20
2019-05-02T20:08:02.399Z,11.30
2019-05-02T20:10:32.192Z,11.30
2019-05-02T20:13:03.192Z,11.30
2019-05-02T20:15:33.502Z,11.30
2019-05-02T20:18:04.672Z,11.30
2019-05-02T20:21:03.835Z,11.30
2019-05-02T20:23:35.549Z,11.30
2019-05-02T20:26:02.477Z,11.30
2019-05-02T20:28:31.748Z,11.30
2019-05-02T20:31:01.798Z,11.40
2019-05-02T20:33:32.437Z,11.40
2019-05-02T20:36:01.841Z,11.40
2019-05-02T20:38:32.422Z,11.40
2019-05-02T20:41:02.775Z,11.40
2019-05-02T20:43:32.254Z,11.40
2019-05-02T20:46:02.575Z,11.40
2019-05-02T20:48:33.044Z,11.40
2019-05-02T20:51:02.760Z,11.40
2019-05-02T20:53:34.083Z,11.40
2019-05-02T20:56:02.005Z,11.50
2019-05-02T20:58:32.465Z,11.50
2019-05-02T21:01:07.669Z,11.50
2019-05-02T21:03:32.003Z,11.50
2019-05-02T21:06:04.851Z,11.50
2019-05-02T21:08:34.785Z,11.60
2019-05-02T21:11:06.221Z,11.60
2019-05-02T21:13:35.000Z,11.60
2019-05-02T21:16:03.627Z,11.60
2019-05-02T21:18:32.801Z,11.60
2019-05-02T21:21:01.427Z,11.50
2019-05-02T21:23:41.989Z,11.50
2019-05-02T21:26:01.901Z,11.50
2019-05-02T21:28:32.195Z,11.50
2019-05-02T21:31:02.799Z,11.50
2019-05-02T21:33:39.695Z,11.60
2019-05-02T21:36:08.582Z,11.60
2019-05-02T21:38:37.469Z,11.60
2019-05-02T21:41:11.113Z,11.60
2019-05-02T21:43:39.631Z,11.60
2019-05-02T21:46:08.244Z,11.50
2019-05-02T21:48:36.801Z,11.60
2019-05-02T21:51:09.817Z,11.60
2019-05-02T21:53:41.580Z,11.60
2019-05-02T21:56:17.380Z,11.50
2019-05-02T21:59:03.024Z,11.50
2019-05-02T22:01:32.998Z,11.50
2019-05-02T22:04:02.266Z,11.50
2019-05-02T22:06:32.255Z,11.50
2019-05-02T22:09:02.905Z,11.50
2019-05-02T22:11:32.027Z,11.50
2019-05-02T22:14:02.398Z,11.40
2019-05-02T22:16:32.682Z,11.40
2019-05-02T22:19:02.867Z,11.40
2019-05-02T22:21:34.673Z,11.40
2019-05-02T22:24:08.988Z,11.40
2019-05-02T22:26:32.783Z,11.40
2019-05-02T22:29:02.067Z,11.30
2019-05-02T22:31:32.371Z,11.40
2019-05-02T22:34:02.143Z,11.40
2019-05-02T22:36:32.660Z,11.30
2019-05-02T22:39:19.820Z,11.40
2019-05-02T22:41:48.296Z,11.40
2019-05-02T22:44:16.840Z,11.40
2019-05-02T22:46:46.128Z,11.30
2019-05-02T22:49:15.114Z,11.30
2019-05-02T22:51:44.242Z,11.30
2019-05-02T22:54:24.245Z,11.30
2019-05-02T22:56:43.358Z,11.30
2019-05-02T22:59:11.909Z,11.30
2019-05-02T23:01:42.162Z,11.30
2019-05-02T23:04:12.725Z,11.30
2019-05-02T23:06:43.838Z,11.30
2019-05-02T23:09:12.644Z,11.30
2019-05-02T23:11:42.628Z,11.20
2019-05-02T23:14:11.591Z,11.20
2019-05-02T23:16:42.766Z,11.20
2019-05-02T23:19:12.275Z,11.20
2019-05-02T23:21:42.189Z,11.10
2019-05-02T23:24:14.642Z,11.10
2019-05-02T23:26:56.753Z,11.10
2019-05-02T23:29:26.953Z,11.10
2019-05-02T23:31:55.500Z,11.00
2019-05-02T23:34:23.988Z,11.00
2019-05-02T23:36:52.552Z,11.00
2019-05-02T23:39:21.360Z,11.00
2019-05-02T23:41:49.904Z,10.90
2019-05-02T23:44:18.535Z,10.90
2019-05-02T23:46:47.004Z,10.80
2019-05-02T23:49:15.555Z,10.80
2019-05-02T23:51:44.123Z,10.80
2019-05-02T23:54:13.061Z,10.70
2019-05-02T23:56:43.069Z,10.70
2019-05-02T23:59:12.193Z,10.60
